sensor_id;sensor_type;location;lat;lon;timestamp;P1;durP1;ratioP1;P2;durP2;ratioP2
56161;SDS011;42045;52.986;6.014;2023-04-24T00:02:04;11.30;;;10.23;;
56161;SDS011;42045;52.986;6.014;2023-04-24T00:04:31;11.00;;;9.90;;
56161;SDS011;42045;52.986;6.014;2023-04-24T00:06:57;10.95;;;9.85;;
56161;SDS011;42045;52.986;6.014;2023-04-24T00:09:25;11.25;;;10.00;;
56161;SDS011;42045;52.986;6.014;2023-04-24T00:11:51;10.80;;;9.80;;
56161;SDS011;42045;52.986;6.014;2023-04-24T00:14:17;9.80;;;8.88;;
56161;SDS011;42045;52.986;6.014;2023-04-24T00:16:42;8.57;;;7.78;;
56161;SDS011;42045;52.986;6.014;2023-04-24T00:19:08;7.28;;;6.60;;
56161;SDS011;42045;52.986;6.014;2023-04-24T00:21:34;7.40;;;6.70;;
56161;SDS011;42045;52.986;6.014;2023-04-24T00:24:00;7.75;;;6.95;;
56161;SDS011;42045;52.986;6.014;2023-04-24T00:26:25;6.72;;;6.13;;
56161;SDS011;42045;52.986;6.014;2023-04-24T00:28:51;6.30;;;5.70;;
56161;SDS011;42045;52.986;6.014;2023-04-24T00:31:16;6.15;;;5.55;;
56161;SDS011;42045;52.986;6.014;2023-04-24T00:33:42;6.97;;;6.28;;
56161;SDS011;42045;52.986;6.014;2023-04-24T00:36:08;7.38;;;6.63;;
56161;SDS011;42045;52.986;6.014;2023-04-24T00:38:34;6.93;;;6.22;;
56161;SDS011;42045;52.986;6.014;2023-04-24T00:41:00;6.47;;;5.88;;
56161;SDS011;42045;52.986;6.014;2023-04-24T00:43:26;8.07;;;5.97;;
56161;SDS011;42045;52.986;6.014;2023-04-24T00:45:51;7.60;;;6.25;;
56161;SDS011;42045;52.986;6.014;2023-04-24T00:48:17;8.68;;;6.70;;
56161;SDS011;42045;52.986;6.014;2023-04-24T00:50:44;8.55;;;6.97;;
56161;SDS011;42045;52.986;6.014;2023-04-24T00:53:10;7.40;;;6.70;;
56161;SDS011;42045;52.986;6.014;2023-04-24T00:55:36;7.78;;;7.07;;
56161;SDS011;42045;52.986;6.014;2023-04-24T00:58:02;7.57;;;6.88;;
56161;SDS011;42045;52.986;6.014;2023-04-24T01:00:28;7.78;;;6.72;;
56161;SDS011;42045;52.986;6.014;2023-04-24T01:02:54;7.18;;;6.47;;
56161;SDS011;42045;52.986;6.014;2023-04-24T01:05:20;6.70;;;5.72;;
56161;SDS011;42045;52.986;6.014;2023-04-24T01:07:46;7.25;;;6.53;;
56161;SDS011;42045;52.986;6.014;2023-04-24T01:10:14;6.53;;;5.65;;
56161;SDS011;42045;52.986;6.014;2023-04-24T01:12:40;7.60;;;6.82;;
56161;SDS011;42045;52.986;6.014;2023-04-24T01:15:06;7.32;;;6.28;;
56161;SDS011;42045;52.986;6.014;2023-04-24T01:17:32;8.80;;;6.85;;
56161;SDS011;42045;52.986;6.014;2023-04-24T01:19:58;8.77;;;6.93;;
56161;SDS011;42045;52.986;6.014;2023-04-24T01:22:26;8.18;;;7.13;;
56161;SDS011;42045;52.986;6.014;2023-04-24T01:24:52;8.23;;;7.53;;
56161;SDS011;42045;52.986;6.014;2023-04-24T01:27:18;8.05;;;7.25;;
56161;SDS011;42045;52.986;6.014;2023-04-24T01:29:45;8.10;;;7.30;;
56161;SDS011;42045;52.986;6.014;2023-04-24T01:32:12;10.13;;;7.55;;
56161;SDS011;42045;52.986;6.014;2023-04-24T01:34:38;8.80;;;8.00;;
56161;SDS011;42045;52.986;6.014;2023-04-24T01:37:04;8.95;;;7.68;;
56161;SDS011;42045;52.986;6.014;2023-04-24T01:39:30;9.00;;;8.20;;
56161;SDS011;42045;52.986;6.014;2023-04-24T01:41:56;9.52;;;8.52;;
56161;SDS011;42045;52.986;6.014;2023-04-24T01:44:22;10.45;;;8.60;;
56161;SDS011;42045;52.986;6.014;2023-04-24T01:46:48;11.65;;;8.82;;
56161;SDS011;42045;52.986;6.014;2023-04-24T01:49:14;9.90;;;8.90;;
56161;SDS011;42045;52.986;6.014;2023-04-24T01:51:40;10.65;;;9.55;;
56161;SDS011;42045;52.986;6.014;2023-04-24T01:54:06;9.82;;;8.63;;
56161;SDS011;42045;52.986;6.014;2023-04-24T01:56:33;10.55;;;9.45;;
56161;SDS011;42045;52.986;6.014;2023-04-24T01:59:00;10.48;;;9.57;;
56161;SDS011;42045;52.986;6.014;2023-04-24T02:01:27;11.23;;;10.02;;
56161;SDS011;42045;52.986;6.014;2023-04-24T02:03:57;11.68;;;10.55;;
56161;SDS011;42045;52.986;6.014;2023-04-24T02:06:23;11.45;;;10.35;;
56161;SDS011;42045;52.986;6.014;2023-04-24T02:08:49;10.93;;;9.93;;
56161;SDS011;42045;52.986;6.014;2023-04-24T02:11:14;11.27;;;10.18;;
56161;SDS011;42045;52.986;6.014;2023-04-24T02:13:40;11.68;;;10.48;;
56161;SDS011;42045;52.986;6.014;2023-04-24T02:16:05;12.38;;;10.93;;
56161;SDS011;42045;52.986;6.014;2023-04-24T02:18:31;11.85;;;10.75;;
56161;SDS011;42045;52.986;6.014;2023-04-24T02:20:57;11.95;;;10.82;;
56161;SDS011;42045;52.986;6.014;2023-04-24T02:23:22;13.25;;;11.95;;
56161;SDS011;42045;52.986;6.014;2023-04-24T02:25:48;13.20;;;11.90;;
56161;SDS011;42045;52.986;6.014;2023-04-24T02:28:13;13.25;;;11.93;;
56161;SDS011;42045;52.986;6.014;2023-04-24T02:30:39;13.93;;;12.52;;
56161;SDS011;42045;52.986;6.014;2023-04-24T02:33:05;14.95;;;13.55;;
56161;SDS011;42045;52.986;6.014;2023-04-24T02:35:31;14.18;;;12.77;;
56161;SDS011;42045;52.986;6.014;2023-04-24T02:37:56;14.95;;;13.43;;
56161;SDS011;42045;52.986;6.014;2023-04-24T02:40:22;16.95;;;13.40;;
56161;SDS011;42045;52.986;6.014;2023-04-24T02:42:47;15.40;;;13.80;;
56161;SDS011;42045;52.986;6.014;2023-04-24T02:45:13;15.00;;;13.60;;
56161;SDS011;42045;52.986;6.014;2023-04-24T02:47:39;15.93;;;14.43;;
56161;SDS011;42045;52.986;6.014;2023-04-24T02:50:05;15.68;;;14.18;;
56161;SDS011;42045;52.986;6.014;2023-04-24T02:52:31;16.77;;;14.15;;
56161;SDS011;42045;52.986;6.014;2023-04-24T02:54:57;17.42;;;15.63;;
56161;SDS011;42045;52.986;6.014;2023-04-24T02:57:23;17.55;;;15.68;;
56161;SDS011;42045;52.986;6.014;2023-04-24T02:59:48;17.48;;;15.63;;
56161;SDS011;42045;52.986;6.014;2023-04-24T03:02:14;19.00;;;16.85;;
56161;SDS011;42045;52.986;6.014;2023-04-24T03:04:40;21.55;;;16.27;;
56161;SDS011;42045;52.986;6.014;2023-04-24T03:07:07;18.95;;;16.95;;
56161;SDS011;42045;52.986;6.014;2023-04-24T03:09:33;20.50;;;18.30;;
56161;SDS011;42045;52.986;6.014;2023-04-24T03:11:59;19.35;;;17.25;;
56161;SDS011;42045;52.986;6.014;2023-04-24T03:14:25;19.63;;;17.10;;
56161;SDS011;42045;52.986;6.014;2023-04-24T03:16:51;20.77;;;18.58;;
56161;SDS011;42045;52.986;6.014;2023-04-24T03:19:16;20.77;;;18.52;;
56161;SDS011;42045;52.986;6.014;2023-04-24T03:21:42;21.63;;;18.65;;
56161;SDS011;42045;52.986;6.014;2023-04-24T03:24:08;22.63;;;19.38;;
56161;SDS011;42045;52.986;6.014;2023-04-24T03:26:34;21.98;;;18.75;;
56161;SDS011;42045;52.986;6.014;2023-04-24T03:29:00;22.05;;;18.10;;
56161;SDS011;42045;52.986;6.014;2023-04-24T03:31:26;19.77;;;17.70;;
56161;SDS011;42045;52.986;6.014;2023-04-24T03:33:51;20.98;;;18.80;;
56161;SDS011;42045;52.986;6.014;2023-04-24T03:36:17;9.90;;;8.80;;
56161;SDS011;42045;52.986;6.014;2023-04-24T03:38:44;8.70;;;7.80;;
56161;SDS011;42045;52.986;6.014;2023-04-24T03:41:10;7.53;;;6.70;;
56161;SDS011;42045;52.986;6.014;2023-04-24T03:43:36;5.63;;;4.85;;
56161;SDS011;42045;52.986;6.014;2023-04-24T03:46:02;4.78;;;4.38;;
56161;SDS011;42045;52.986;6.014;2023-04-24T03:48:28;6.38;;;4.68;;
56161;SDS011;42045;52.986;6.014;2023-04-24T03:50:53;3.72;;;3.40;;
56161;SDS011;42045;52.986;6.014;2023-04-24T03:53:19;5.10;;;3.60;;
56161;SDS011;42045;52.986;6.014;2023-04-24T03:55:45;4.00;;;3.22;;
56161;SDS011;42045;52.986;6.014;2023-04-24T03:58:11;4.30;;;3.90;;
56161;SDS011;42045;52.986;6.014;2023-04-24T04:00:38;4.20;;;3.80;;
56161;SDS011;42045;52.986;6.014;2023-04-24T04:03:05;4.55;;;4.15;;
56161;SDS011;42045;52.986;6.014;2023-04-24T04:05:31;5.43;;;4.45;;
56161;SDS011;42045;52.986;6.014;2023-04-24T04:07:57;6.13;;;5.47;;
56161;SDS011;42045;52.986;6.014;2023-04-24T04:10:22;6.85;;;6.15;;
56161;SDS011;42045;52.986;6.014;2023-04-24T04:12:48;7.38;;;6.68;;
56161;SDS011;42045;52.986;6.014;2023-04-24T04:15:14;8.13;;;7.32;;
56161;SDS011;42045;52.986;6.014;2023-04-24T04:17:40;10.63;;;9.63;;
56161;SDS011;42045;52.986;6.014;2023-04-24T04:20:06;12.38;;;10.35;;
56161;SDS011;42045;52.986;6.014;2023-04-24T04:22:35;11.65;;;10.45;;
56161;SDS011;42045;52.986;6.014;2023-04-24T04:25:02;13.00;;;11.50;;
56161;SDS011;42045;52.986;6.014;2023-04-24T04:27:28;14.82;;;13.15;;
56161;SDS011;42045;52.986;6.014;2023-04-24T04:29:57;17.23;;;13.73;;
56161;SDS011;42045;52.986;6.014;2023-04-24T04:32:26;13.02;;;11.50;;
56161;SDS011;42045;52.986;6.014;2023-04-24T04:34:52;12.38;;;11.18;;
56161;SDS011;42045;52.986;6.014;2023-04-24T04:37:18;12.63;;;11.10;;
56161;SDS011;42045;52.986;6.014;2023-04-24T04:39:44;12.48;;;11.18;;
56161;SDS011;42045;52.986;6.014;2023-04-24T04:42:09;13.25;;;11.23;;
56161;SDS011;42045;52.986;6.014;2023-04-24T04:44:35;11.55;;;10.35;;
56161;SDS011;42045;52.986;6.014;2023-04-24T04:47:01;11.00;;;10.00;;
56161;SDS011;42045;52.986;6.014;2023-04-24T04:49:30;10.65;;;9.57;;
56161;SDS011;42045;52.986;6.014;2023-04-24T04:51:56;11.32;;;8.98;;
56161;SDS011;42045;52.986;6.014;2023-04-24T04:54:22;10.73;;;8.80;;
56161;SDS011;42045;52.986;6.014;2023-04-24T04:56:49;10.25;;;9.00;;
56161;SDS011;42045;52.986;6.014;2023-04-24T04:59:15;8.88;;;7.70;;
56161;SDS011;42045;52.986;6.014;2023-04-24T05:01:41;8.00;;;6.93;;
56161;SDS011;42045;52.986;6.014;2023-04-24T05:04:06;7.68;;;6.85;;
56161;SDS011;42045;52.986;6.014;2023-04-24T05:06:32;8.32;;;7.43;;
56161;SDS011;42045;52.986;6.014;2023-04-24T05:08:58;9.18;;;7.65;;
56161;SDS011;42045;52.986;6.014;2023-04-24T05:11:24;7.90;;;6.25;;
56161;SDS011;42045;52.986;6.014;2023-04-24T05:13:50;5.75;;;4.63;;
56161;SDS011;42045;52.986;6.014;2023-04-24T05:16:15;6.90;;;4.50;;
56161;SDS011;42045;52.986;6.014;2023-04-24T05:18:41;5.10;;;4.47;;
56161;SDS011;42045;52.986;6.014;2023-04-24T05:21:06;5.43;;;3.78;;
56161;SDS011;42045;52.986;6.014;2023-04-24T05:23:32;4.80;;;3.60;;
56161;SDS011;42045;52.986;6.014;2023-04-24T05:25:58;4.78;;;3.20;;
56161;SDS011;42045;52.986;6.014;2023-04-24T05:28:23;5.20;;;3.28;;
56161;SDS011;42045;52.986;6.014;2023-04-24T05:30:53;8.75;;;3.20;;
56161;SDS011;42045;52.986;6.014;2023-04-24T05:33:20;7.55;;;4.68;;
56161;SDS011;42045;52.986;6.014;2023-04-24T05:35:47;6.35;;;4.97;;
56161;SDS011;42045;52.986;6.014;2023-04-24T05:38:13;8.75;;;5.82;;
56161;SDS011;42045;52.986;6.014;2023-04-24T05:40:42;7.50;;;6.03;;
56161;SDS011;42045;52.986;6.014;2023-04-24T05:43:08;13.18;;;8.35;;
56161;SDS011;42045;52.986;6.014;2023-04-24T05:45:33;13.05;;;9.10;;
56161;SDS011;42045;52.986;6.014;2023-04-24T05:48:01;11.77;;;9.27;;
56161;SDS011;42045;52.986;6.014;2023-04-24T05:50:27;14.10;;;9.85;;
56161;SDS011;42045;52.986;6.014;2023-04-24T05:52:52;15.18;;;10.07;;
56161;SDS011;42045;52.986;6.014;2023-04-24T05:55:18;15.50;;;10.18;;
56161;SDS011;42045;52.986;6.014;2023-04-24T05:57:44;15.45;;;9.95;;
56161;SDS011;42045;52.986;6.014;2023-04-24T06:00:11;15.73;;;9.50;;
56161;SDS011;42045;52.986;6.014;2023-04-24T06:02:41;12.48;;;7.70;;
56161;SDS011;42045;52.986;6.014;2023-04-24T06:05:06;9.82;;;6.40;;
56161;SDS011;42045;52.986;6.014;2023-04-24T06:07:33;9.25;;;6.95;;
56161;SDS011;42045;52.986;6.014;2023-04-24T06:09:59;7.03;;;6.20;;
56161;SDS011;42045;52.986;6.014;2023-04-24T06:12:25;8.50;;;6.32;;
56161;SDS011;42045;52.986;6.014;2023-04-24T06:14:51;7.80;;;5.60;;
56161;SDS011;42045;52.986;6.014;2023-04-24T06:17:16;7.10;;;6.40;;
56161;SDS011;42045;52.986;6.014;2023-04-24T06:19:42;6.57;;;5.90;;
56161;SDS011;42045;52.986;6.014;2023-04-24T06:22:08;7.95;;;5.15;;
56161;SDS011;42045;52.986;6.014;2023-04-24T06:24:34;7.53;;;5.35;;
56161;SDS011;42045;52.986;6.014;2023-04-24T06:26:59;6.13;;;4.95;;
56161;SDS011;42045;52.986;6.014;2023-04-24T06:29:26;7.80;;;4.55;;
56161;SDS011;42045;52.986;6.014;2023-04-24T06:31:52;6.28;;;3.80;;
56161;SDS011;42045;52.986;6.014;2023-04-24T06:34:18;7.70;;;3.67;;
56161;SDS011;42045;52.986;6.014;2023-04-24T06:36:44;4.70;;;3.60;;
56161;SDS011;42045;52.986;6.014;2023-04-24T06:39:09;5.47;;;3.42;;
56161;SDS011;42045;52.986;6.014;2023-04-24T06:41:35;4.65;;;3.10;;
56161;SDS011;42045;52.986;6.014;2023-04-24T06:44:01;8.40;;;3.30;;
56161;SDS011;42045;52.986;6.014;2023-04-24T06:46:26;4.00;;;2.97;;
56161;SDS011;42045;52.986;6.014;2023-04-24T06:48:55;8.52;;;3.65;;
56161;SDS011;42045;52.986;6.014;2023-04-24T06:51:22;4.53;;;2.25;;
56161;SDS011;42045;52.986;6.014;2023-04-24T06:53:48;4.50;;;3.05;;
56161;SDS011;42045;52.986;6.014;2023-04-24T06:56:15;4.57;;;2.60;;
56161;SDS011;42045;52.986;6.014;2023-04-24T06:58:40;4.53;;;2.67;;
56161;SDS011;42045;52.986;6.014;2023-04-24T07:01:07;5.13;;;2.60;;
56161;SDS011;42045;52.986;6.014;2023-04-24T07:03:32;6.63;;;2.90;;
56161;SDS011;42045;52.986;6.014;2023-04-24T07:05:58;6.75;;;3.22;;
56161;SDS011;42045;52.986;6.014;2023-04-24T07:08:24;11.27;;;5.18;;
56161;SDS011;42045;52.986;6.014;2023-04-24T07:10:50;13.32;;;7.07;;
56161;SDS011;42045;52.986;6.014;2023-04-24T07:13:16;14.45;;;8.27;;
56161;SDS011;42045;52.986;6.014;2023-04-24T07:15:42;14.05;;;9.93;;
56161;SDS011;42045;52.986;6.014;2023-04-24T07:18:08;21.27;;;14.38;;
56161;SDS011;42045;52.986;6.014;2023-04-24T07:20:34;22.98;;;15.52;;
56161;SDS011;42045;52.986;6.014;2023-04-24T07:23:00;24.17;;;16.25;;
56161;SDS011;42045;52.986;6.014;2023-04-24T07:25:26;23.42;;;15.48;;
56161;SDS011;42045;52.986;6.014;2023-04-24T07:27:52;22.55;;;16.52;;
56161;SDS011;42045;52.986;6.014;2023-04-24T07:30:18;27.75;;;16.90;;
56161;SDS011;42045;52.986;6.014;2023-04-24T07:32:43;23.77;;;16.77;;
56161;SDS011;42045;52.986;6.014;2023-04-24T07:35:09;19.98;;;14.88;;
56161;SDS011;42045;52.986;6.014;2023-04-24T07:37:35;20.90;;;14.70;;
56161;SDS011;42045;52.986;6.014;2023-04-24T07:40:01;24.63;;;14.60;;
56161;SDS011;42045;52.986;6.014;2023-04-24T07:42:27;22.23;;;14.00;;
56161;SDS011;42045;52.986;6.014;2023-04-24T07:44:55;22.08;;;15.27;;
56161;SDS011;42045;52.986;6.014;2023-04-24T07:47:21;23.05;;;16.67;;
56161;SDS011;42045;52.986;6.014;2023-04-24T07:49:47;22.30;;;16.02;;
56161;SDS011;42045;52.986;6.014;2023-04-24T07:52:12;24.90;;;16.70;;
56161;SDS011;42045;52.986;6.014;2023-04-24T07:54:38;22.67;;;18.83;;
56161;SDS011;42045;52.986;6.014;2023-04-24T07:57:04;27.67;;;19.33;;
56161;SDS011;42045;52.986;6.014;2023-04-24T07:59:31;25.75;;;19.88;;
56161;SDS011;42045;52.986;6.014;2023-04-24T08:01:57;23.92;;;18.13;;
56161;SDS011;42045;52.986;6.014;2023-04-24T08:04:23;23.98;;;17.98;;
56161;SDS011;42045;52.986;6.014;2023-04-24T08:06:48;22.00;;;17.02;;
56161;SDS011;42045;52.986;6.014;2023-04-24T08:09:14;21.50;;;16.67;;
56161;SDS011;42045;52.986;6.014;2023-04-24T08:11:40;21.60;;;15.57;;
56161;SDS011;42045;52.986;6.014;2023-04-24T08:14:05;18.85;;;14.60;;
56161;SDS011;42045;52.986;6.014;2023-04-24T08:16:32;17.27;;;13.30;;
56161;SDS011;42045;52.986;6.014;2023-04-24T08:18:58;16.13;;;12.77;;
56161;SDS011;42045;52.986;6.014;2023-04-24T08:21:23;16.63;;;12.32;;
56161;SDS011;42045;52.986;6.014;2023-04-24T08:23:52;16.25;;;12.05;;
56161;SDS011;42045;52.986;6.014;2023-04-24T08:26:18;13.82;;;11.30;;
56161;SDS011;42045;52.986;6.014;2023-04-24T08:28:43;18.73;;;11.07;;
56161;SDS011;42045;52.986;6.014;2023-04-24T08:31:09;15.50;;;11.30;;
56161;SDS011;42045;52.986;6.014;2023-04-24T08:33:35;15.75;;;10.07;;
56161;SDS011;42045;52.986;6.014;2023-04-24T08:36:04;15.07;;;9.48;;
56161;SDS011;42045;52.986;6.014;2023-04-24T08:38:31;15.32;;;9.60;;
56161;SDS011;42045;52.986;6.014;2023-04-24T08:41:00;13.77;;;9.15;;
56161;SDS011;42045;52.986;6.014;2023-04-24T08:43:26;17.20;;;9.80;;
56161;SDS011;42045;52.986;6.014;2023-04-24T08:45:53;12.95;;;8.60;;
56161;SDS011;42045;52.986;6.014;2023-04-24T08:48:22;15.10;;;9.73;;
56161;SDS011;42045;52.986;6.014;2023-04-24T08:50:50;15.90;;;8.95;;
56161;SDS011;42045;52.986;6.014;2023-04-24T08:53:16;14.70;;;8.57;;
56161;SDS011;42045;52.986;6.014;2023-04-24T08:55:43;18.83;;;9.10;;
56161;SDS011;42045;52.986;6.014;2023-04-24T08:58:10;14.02;;;9.32;;
56161;SDS011;42045;52.986;6.014;2023-04-24T09:00:36;15.88;;;8.27;;
56161;SDS011;42045;52.986;6.014;2023-04-24T09:03:04;13.05;;;8.02;;
56161;SDS011;42045;52.986;6.014;2023-04-24T09:05:31;15.68;;;7.50;;
56161;SDS011;42045;52.986;6.014;2023-04-24T09:07:57;15.35;;;6.95;;
56161;SDS011;42045;52.986;6.014;2023-04-24T09:10:26;15.65;;;8.65;;
56161;SDS011;42045;52.986;6.014;2023-04-24T09:12:55;11.45;;;6.57;;
56161;SDS011;42045;52.986;6.014;2023-04-24T09:15:24;9.38;;;5.38;;
56161;SDS011;42045;52.986;6.014;2023-04-24T09:17:50;12.75;;;6.50;;
56161;SDS011;42045;52.986;6.014;2023-04-24T09:20:16;10.95;;;5.18;;
56161;SDS011;42045;52.986;6.014;2023-04-24T09:22:42;13.30;;;5.50;;
56161;SDS011;42045;52.986;6.014;2023-04-24T09:25:10;12.40;;;4.97;;
56161;SDS011;42045;52.986;6.014;2023-04-24T09:27:41;12.40;;;4.80;;
56161;SDS011;42045;52.986;6.014;2023-04-24T09:30:09;8.65;;;4.90;;
56161;SDS011;42045;52.986;6.014;2023-04-24T09:32:35;12.55;;;5.65;;
56161;SDS011;42045;52.986;6.014;2023-04-24T09:35:11;9.25;;;4.70;;
56161;SDS011;42045;52.986;6.014;2023-04-24T09:37:39;9.55;;;5.10;;
56161;SDS011;42045;52.986;6.014;2023-04-24T09:42:38;9.93;;;4.75;;
56161;SDS011;42045;52.986;6.014;2023-04-24T09:45:13;13.75;;;5.63;;
56161;SDS011;42045;52.986;6.014;2023-04-24T09:47:40;14.15;;;5.32;;
56161;SDS011;42045;52.986;6.014;2023-04-24T09:50:12;15.30;;;4.90;;
56161;SDS011;42045;52.986;6.014;2023-04-24T09:52:43;13.60;;;4.53;;
56161;SDS011;42045;52.986;6.014;2023-04-24T09:55:29;13.18;;;3.97;;
56161;SDS011;42045;52.986;6.014;2023-04-24T09:57:58;11.18;;;4.13;;
56161;SDS011;42045;52.986;6.014;2023-04-24T10:00:31;13.25;;;4.50;;
56161;SDS011;42045;52.986;6.014;2023-04-24T10:02:59;15.20;;;5.30;;
56161;SDS011;42045;52.986;6.014;2023-04-24T10:08:02;10.35;;;3.65;;
56161;SDS011;42045;52.986;6.014;2023-04-24T10:10:33;15.15;;;4.63;;
56161;SDS011;42045;52.986;6.014;2023-04-24T10:13:01;11.27;;;4.10;;
56161;SDS011;42045;52.986;6.014;2023-04-24T10:15:28;13.70;;;3.78;;
56161;SDS011;42045;52.986;6.014;2023-04-24T10:17:54;13.55;;;4.10;;
56161;SDS011;42045;52.986;6.014;2023-04-24T10:20:24;11.80;;;3.75;;
56161;SDS011;42045;52.986;6.014;2023-04-24T10:22:53;13.70;;;3.83;;
56161;SDS011;42045;52.986;6.014;2023-04-24T10:25:20;12.52;;;3.40;;
56161;SDS011;42045;52.986;6.014;2023-04-24T10:27:47;14.00;;;4.38;;
56161;SDS011;42045;52.986;6.014;2023-04-24T10:30:15;12.73;;;3.33;;
56161;SDS011;42045;52.986;6.014;2023-04-24T10:32:41;9.77;;;3.63;;
56161;SDS011;42045;52.986;6.014;2023-04-24T10:35:07;11.65;;;3.10;;
56161;SDS011;42045;52.986;6.014;2023-04-24T10:37:37;11.48;;;3.08;;
56161;SDS011;42045;52.986;6.014;2023-04-24T10:40:25;14.32;;;3.28;;
56161;SDS011;42045;52.986;6.014;2023-04-24T10:42:55;13.32;;;3.28;;
56161;SDS011;42045;52.986;6.014;2023-04-24T10:45:22;10.65;;;3.83;;
56161;SDS011;42045;52.986;6.014;2023-04-24T10:47:52;11.20;;;3.30;;
56161;SDS011;42045;52.986;6.014;2023-04-24T10:50:21;17.67;;;2.72;;
56161;SDS011;42045;52.986;6.014;2023-04-24T10:52:48;14.77;;;3.70;;
56161;SDS011;42045;52.986;6.014;2023-04-24T10:55:16;13.95;;;3.83;;
56161;SDS011;42045;52.986;6.014;2023-04-24T10:58:12;9.05;;;2.55;;
56161;SDS011;42045;52.986;6.014;2023-04-24T11:00:40;15.98;;;3.15;;
56161;SDS011;42045;52.986;6.014;2023-04-24T11:03:06;17.33;;;3.13;;
56161;SDS011;42045;52.986;6.014;2023-04-24T11:05:55;8.63;;;3.05;;
56161;SDS011;42045;52.986;6.014;2023-04-24T11:10:56;8.05;;;2.63;;
56161;SDS011;42045;52.986;6.014;2023-04-24T11:13:23;9.00;;;2.83;;
56161;SDS011;42045;52.986;6.014;2023-04-24T11:19:01;9.52;;;3.25;;
56161;SDS011;42045;52.986;6.014;2023-04-24T11:32:25;7.95;;;1.88;;
56161;SDS011;42045;52.986;6.014;2023-04-24T11:34:54;9.05;;;2.30;;
56161;SDS011;42045;52.986;6.014;2023-04-24T11:37:29;6.18;;;2.03;;
56161;SDS011;42045;52.986;6.014;2023-04-24T11:40:03;6.88;;;2.10;;
56161;SDS011;42045;52.986;6.014;2023-04-24T11:42:37;9.98;;;2.33;;
56161;SDS011;42045;52.986;6.014;2023-04-24T11:45:07;6.75;;;1.58;;
56161;SDS011;42045;52.986;6.014;2023-04-24T11:47:44;3.72;;;1.10;;
56161;SDS011;42045;52.986;6.014;2023-04-24T11:50:11;6.15;;;1.70;;
56161;SDS011;42045;52.986;6.014;2023-04-24T11:52:39;4.63;;;1.20;;
56161;SDS011;42045;52.986;6.014;2023-04-24T11:57:46;2.92;;;1.15;;
56161;SDS011;42045;52.986;6.014;2023-04-24T12:00:25;5.07;;;1.40;;
56161;SDS011;42045;52.986;6.014;2023-04-24T12:02:51;3.45;;;1.33;;
56161;SDS011;42045;52.986;6.014;2023-04-24T12:05:28;5.30;;;1.40;;
56161;SDS011;42045;52.986;6.014;2023-04-24T12:07:56;6.72;;;1.70;;
56161;SDS011;42045;52.986;6.014;2023-04-24T12:10:22;7.65;;;1.45;;
56161;SDS011;42045;52.986;6.014;2023-04-24T12:12:50;6.47;;;1.50;;
56161;SDS011;42045;52.986;6.014;2023-04-24T12:15:17;8.77;;;1.80;;
56161;SDS011;42045;52.986;6.014;2023-04-24T12:17:44;8.90;;;1.40;;
56161;SDS011;42045;52.986;6.014;2023-04-24T12:20:10;7.25;;;1.58;;
56161;SDS011;42045;52.986;6.014;2023-04-24T12:22:47;6.60;;;1.48;;
56161;SDS011;42045;52.986;6.014;2023-04-24T12:25:20;9.80;;;1.77;;
56161;SDS011;42045;52.986;6.014;2023-04-24T12:27:54;8.57;;;3.15;;
56161;SDS011;42045;52.986;6.014;2023-04-24T12:30:20;7.63;;;1.52;;
56161;SDS011;42045;52.986;6.014;2023-04-24T12:32:51;5.88;;;2.03;;
56161;SDS011;42045;52.986;6.014;2023-04-24T12:35:20;7.05;;;1.40;;
56161;SDS011;42045;52.986;6.014;2023-04-24T12:37:47;7.90;;;1.30;;
56161;SDS011;42045;52.986;6.014;2023-04-24T12:40:13;8.82;;;1.27;;
56161;SDS011;42045;52.986;6.014;2023-04-24T12:42:43;4.85;;;1.08;;
56161;SDS011;42045;52.986;6.014;2023-04-24T12:45:10;4.55;;;1.13;;
56161;SDS011;42045;52.986;6.014;2023-04-24T12:47:37;2.33;;;0.90;;
56161;SDS011;42045;52.986;6.014;2023-04-24T12:50:04;4.90;;;1.20;;
56161;SDS011;42045;52.986;6.014;2023-04-24T12:52:31;4.75;;;1.70;;
56161;SDS011;42045;52.986;6.014;2023-04-24T12:55:00;9.88;;;1.80;;
56161;SDS011;42045;52.986;6.014;2023-04-24T12:57:26;8.65;;;1.70;;
56161;SDS011;42045;52.986;6.014;2023-04-24T12:59:54;5.28;;;1.50;;
56161;SDS011;42045;52.986;6.014;2023-04-24T13:02:21;4.70;;;1.30;;
56161;SDS011;42045;52.986;6.014;2023-04-24T13:04:48;5.85;;;1.50;;
56161;SDS011;42045;52.986;6.014;2023-04-24T13:07:14;6.10;;;1.60;;
56161;SDS011;42045;52.986;6.014;2023-04-24T13:09:41;4.43;;;1.40;;
56161;SDS011;42045;52.986;6.014;2023-04-24T13:12:07;6.40;;;1.40;;
56161;SDS011;42045;52.986;6.014;2023-04-24T13:14:34;3.20;;;1.23;;
56161;SDS011;42045;52.986;6.014;2023-04-24T13:17:00;5.18;;;1.67;;
56161;SDS011;42045;52.986;6.014;2023-04-24T13:19:26;8.13;;;1.58;;
56161;SDS011;42045;52.986;6.014;2023-04-24T13:21:53;5.85;;;1.50;;
56161;SDS011;42045;52.986;6.014;2023-04-24T13:24:20;7.80;;;1.80;;
56161;SDS011;42045;52.986;6.014;2023-04-24T13:26:50;6.75;;;1.80;;
56161;SDS011;42045;52.986;6.014;2023-04-24T13:29:16;6.93;;;2.03;;
56161;SDS011;42045;52.986;6.014;2023-04-24T13:31:42;12.15;;;2.20;;
56161;SDS011;42045;52.986;6.014;2023-04-24T13:34:08;9.60;;;2.08;;
56161;SDS011;42045;52.986;6.014;2023-04-24T13:36:34;11.52;;;2.20;;
56161;SDS011;42045;52.986;6.014;2023-04-24T13:39:00;9.60;;;2.15;;
56161;SDS011;42045;52.986;6.014;2023-04-24T13:41:26;10.38;;;2.67;;
56161;SDS011;42045;52.986;6.014;2023-04-24T13:43:52;9.90;;;2.53;;
56161;SDS011;42045;52.986;6.014;2023-04-24T13:46:17;12.15;;;2.83;;
56161;SDS011;42045;52.986;6.014;2023-04-24T13:48:43;9.95;;;2.70;;
56161;SDS011;42045;52.986;6.014;2023-04-24T13:51:09;11.93;;;2.88;;
56161;SDS011;42045;52.986;6.014;2023-04-24T13:53:34;15.25;;;2.88;;
56161;SDS011;42045;52.986;6.014;2023-04-24T13:56:03;12.05;;;3.25;;
56161;SDS011;42045;52.986;6.014;2023-04-24T13:58:29;17.55;;;4.22;;
56161;SDS011;42045;52.986;6.014;2023-04-24T14:00:55;11.27;;;2.90;;
56161;SDS011;42045;52.986;6.014;2023-04-24T14:03:21;10.55;;;2.45;;
56161;SDS011;42045;52.986;6.014;2023-04-24T14:05:46;17.67;;;2.90;;
56161;SDS011;42045;52.986;6.014;2023-04-24T14:08:12;9.98;;;3.28;;
56161;SDS011;42045;52.986;6.014;2023-04-24T14:10:38;9.55;;;3.00;;
56161;SDS011;42045;52.986;6.014;2023-04-24T14:13:04;10.40;;;2.83;;
56161;SDS011;42045;52.986;6.014;2023-04-24T14:15:30;13.52;;;2.92;;
56161;SDS011;42045;52.986;6.014;2023-04-24T14:17:56;14.45;;;4.30;;
56161;SDS011;42045;52.986;6.014;2023-04-24T14:20:22;12.15;;;3.65;;
56161;SDS011;42045;52.986;6.014;2023-04-24T14:22:48;8.05;;;2.83;;
56161;SDS011;42045;52.986;6.014;2023-04-24T14:25:14;8.60;;;2.85;;
56161;SDS011;42045;52.986;6.014;2023-04-24T14:27:40;10.95;;;2.75;;
56161;SDS011;42045;52.986;6.014;2023-04-24T14:30:06;9.98;;;2.85;;
56161;SDS011;42045;52.986;6.014;2023-04-24T14:32:32;15.07;;;3.55;;
56161;SDS011;42045;52.986;6.014;2023-04-24T14:34:58;11.95;;;3.80;;
56161;SDS011;42045;52.986;6.014;2023-04-24T14:37:24;9.65;;;3.28;;
56161;SDS011;42045;52.986;6.014;2023-04-24T14:39:49;13.65;;;3.65;;
56161;SDS011;42045;52.986;6.014;2023-04-24T14:42:15;11.32;;;3.83;;
56161;SDS011;42045;52.986;6.014;2023-04-24T14:44:42;14.73;;;3.80;;
56161;SDS011;42045;52.986;6.014;2023-04-24T14:47:07;17.20;;;3.70;;
56161;SDS011;42045;52.986;6.014;2023-04-24T14:49:33;14.82;;;7.45;;
56161;SDS011;42045;52.986;6.014;2023-04-24T14:51:59;11.35;;;3.28;;
56161;SDS011;42045;52.986;6.014;2023-04-24T14:54:25;12.15;;;3.70;;
56161;SDS011;42045;52.986;6.014;2023-04-24T14:56:50;11.07;;;3.80;;
56161;SDS011;42045;52.986;6.014;2023-04-24T14:59:16;9.23;;;3.20;;
56161;SDS011;42045;52.986;6.014;2023-04-24T15:01:42;11.77;;;3.53;;